sensor_id;sensor_type;location;lat;lon;timestamp;P1;durP1;ratioP1;P2;durP2;ratioP2
22378;SDS011;11357;49.990;7.370;2023-07-24T00:00:58;4.13;;;2.47;;
22378;SDS011;11357;49.990;7.370;2023-07-24T00:03:23;4.10;;;2.57;;
22378;SDS011;11357;49.990;7.370;2023-07-24T00:05:49;7.88;;;2.33;;
22378;SDS011;11357;49.990;7.370;2023-07-24T00:08:15;4.37;;;2.20;;
22378;SDS011;11357;49.990;7.370;2023-07-24T00:10:40;3.50;;;2.40;;
22378;SDS011;11357;49.990;7.370;2023-07-24T00:13:06;8.55;;;2.92;;
22378;SDS011;11357;49.990;7.370;2023-07-24T00:15:32;3.15;;;2.58;;
22378;SDS011;11357;49.990;7.370;2023-07-24T00:17:58;3.43;;;2.20;;
22378;SDS011;11357;49.990;7.370;2023-07-24T00:20:23;5.47;;;2.77;;
22378;SDS011;11357;49.990;7.370;2023-07-24T00:22:50;6.80;;;2.53;;
22378;SDS011;11357;49.990;7.370;2023-07-24T00:25:16;5.53;;;2.70;;
22378;SDS011;11357;49.990;7.370;2023-07-24T00:27:41;6.67;;;2.63;;
22378;SDS011;11357;49.990;7.370;2023-07-24T00:30:07;3.58;;;2.50;;
22378;SDS011;11357;49.990;7.370;2023-07-24T00:32:33;3.70;;;2.80;;
22378;SDS011;11357;49.990;7.370;2023-07-24T00:34:59;3.03;;;2.60;;
22378;SDS011;11357;49.990;7.370;2023-07-24T00:37:25;4.07;;;2.30;;
22378;SDS011;11357;49.990;7.370;2023-07-24T00:39:51;5.30;;;2.83;;
22378;SDS011;11357;49.990;7.370;2023-07-24T00:42:16;5.30;;;2.60;;
22378;SDS011;11357;49.990;7.370;2023-07-24T00:44:42;4.70;;;2.90;;
22378;SDS011;11357;49.990;7.370;2023-07-24T00:47:08;5.95;;;2.60;;
22378;SDS011;11357;49.990;7.370;2023-07-24T00:49:34;5.93;;;2.67;;
22378;SDS011;11357;49.990;7.370;2023-07-24T00:52:00;3.20;;;2.87;;
22378;SDS011;11357;49.990;7.370;2023-07-24T00:54:26;3.37;;;2.60;;
22378;SDS011;11357;49.990;7.370;2023-07-24T00:56:55;4.35;;;2.47;;
22378;SDS011;11357;49.990;7.370;2023-07-24T00:59:21;6.22;;;2.90;;
22378;SDS011;11357;49.990;7.370;2023-07-24T01:01:47;4.40;;;2.63;;
22378;SDS011;11357;49.990;7.370;2023-07-24T01:04:13;4.97;;;2.80;;
22378;SDS011;11357;49.990;7.370;2023-07-24T01:06:40;4.60;;;2.50;;
22378;SDS011;11357;49.990;7.370;2023-07-24T01:09:05;6.10;;;2.80;;
22378;SDS011;11357;49.990;7.370;2023-07-24T01:12:07;2.90;;;2.50;;
22378;SDS011;11357;49.990;7.370;2023-07-24T01:14:27;8.02;;;2.78;;
22378;SDS011;11357;49.990;7.370;2023-07-24T01:17:01;6.10;;;3.03;;
22378;SDS011;11357;49.990;7.370;2023-07-24T01:27:46;4.93;;;3.10;;
22378;SDS011;11357;49.990;7.370;2023-07-24T01:30:16;6.10;;;2.90;;
22378;SDS011;11357;49.990;7.370;2023-07-24T01:32:43;9.27;;;3.15;;
22378;SDS011;11357;49.990;7.370;2023-07-24T01:35:09;10.87;;;3.80;;
22378;SDS011;11357;49.990;7.370;2023-07-24T01:37:35;12.52;;;3.13;;
22378;SDS011;11357;49.990;7.370;2023-07-24T01:40:04;9.35;;;3.60;;
22378;SDS011;11357;49.990;7.370;2023-07-24T01:42:31;11.40;;;3.57;;
22378;SDS011;11357;49.990;7.370;2023-07-24T01:44:58;6.40;;;3.00;;
22378;SDS011;11357;49.990;7.370;2023-07-24T01:47:24;5.17;;;3.07;;
22378;SDS011;11357;49.990;7.370;2023-07-24T01:49:50;6.78;;;3.35;;
22378;SDS011;11357;49.990;7.370;2023-07-24T01:52:16;4.45;;;2.85;;
22378;SDS011;11357;49.990;7.370;2023-07-24T01:54:42;6.07;;;3.20;;
22378;SDS011;11357;49.990;7.370;2023-07-24T01:57:08;4.10;;;3.13;;
22378;SDS011;11357;49.990;7.370;2023-07-24T01:59:33;5.03;;;3.27;;
22378;SDS011;11357;49.990;7.370;2023-07-24T02:01:59;3.33;;;2.72;;
22378;SDS011;11357;49.990;7.370;2023-07-24T02:04:25;4.77;;;2.80;;
22378;SDS011;11357;49.990;7.370;2023-07-24T02:06:51;5.37;;;2.93;;
22378;SDS011;11357;49.990;7.370;2023-07-24T02:09:19;6.47;;;3.00;;
22378;SDS011;11357;49.990;7.370;2023-07-24T02:11:45;4.93;;;2.43;;
22378;SDS011;11357;49.990;7.370;2023-07-24T02:14:12;6.10;;;3.07;;
22378;SDS011;11357;49.990;7.370;2023-07-24T02:16:38;5.87;;;3.20;;
22378;SDS011;11357;49.990;7.370;2023-07-24T02:19:05;9.73;;;3.23;;
22378;SDS011;11357;49.990;7.370;2023-07-24T02:21:31;6.07;;;2.77;;
22378;SDS011;11357;49.990;7.370;2023-07-24T02:23:56;6.40;;;3.00;;
22378;SDS011;11357;49.990;7.370;2023-07-24T02:26:22;5.63;;;3.27;;
22378;SDS011;11357;49.990;7.370;2023-07-24T02:28:48;4.63;;;3.22;;
22378;SDS011;11357;49.990;7.370;2023-07-24T02:31:14;4.67;;;3.00;;
22378;SDS011;11357;49.990;7.370;2023-07-24T02:33:40;5.87;;;3.20;;
22378;SDS011;11357;49.990;7.370;2023-07-24T02:36:05;5.28;;;3.72;;
22378;SDS011;11357;49.990;7.370;2023-07-24T02:38:31;4.35;;;3.45;;
22378;SDS011;11357;49.990;7.370;2023-07-24T02:40:57;4.90;;;3.70;;
22378;SDS011;11357;49.990;7.370;2023-07-24T02:43:23;5.73;;;3.67;;
22378;SDS011;11357;49.990;7.370;2023-07-24T02:45:48;6.43;;;4.10;;
22378;SDS011;11357;49.990;7.370;2023-07-24T02:48:14;8.03;;;3.80;;
22378;SDS011;11357;49.990;7.370;2023-07-24T02:50:40;5.83;;;4.20;;
22378;SDS011;11357;49.990;7.370;2023-07-24T02:53:06;6.13;;;3.70;;
22378;SDS011;11357;49.990;7.370;2023-07-24T02:55:31;5.40;;;3.70;;
22378;SDS011;11357;49.990;7.370;2023-07-24T02:57:57;6.13;;;3.88;;
22378;SDS011;11357;49.990;7.370;2023-07-24T03:00:23;5.80;;;3.93;;
22378;SDS011;11357;49.990;7.370;2023-07-24T03:02:50;7.03;;;4.20;;
22378;SDS011;11357;49.990;7.370;2023-07-24T03:05:17;9.70;;;4.00;;
22378;SDS011;11357;49.990;7.370;2023-07-24T03:07:43;7.50;;;4.67;;
22378;SDS011;11357;49.990;7.370;2023-07-24T03:10:08;6.30;;;4.00;;
22378;SDS011;11357;49.990;7.370;2023-07-24T03:12:34;9.63;;;3.90;;
22378;SDS011;11357;49.990;7.370;2023-07-24T03:15:00;5.87;;;4.03;;
22378;SDS011;11357;49.990;7.370;2023-07-24T03:17:26;4.60;;;3.50;;
22378;SDS011;11357;49.990;7.370;2023-07-24T03:19:53;6.23;;;3.60;;
22378;SDS011;11357;49.990;7.370;2023-07-24T03:22:19;5.67;;;3.87;;
22378;SDS011;11357;49.990;7.370;2023-07-24T03:24:45;8.10;;;4.03;;
22378;SDS011;11357;49.990;7.370;2023-07-24T03:27:11;8.10;;;3.87;;
22378;SDS011;11357;49.990;7.370;2023-07-24T03:29:37;6.57;;;4.50;;
22378;SDS011;11357;49.990;7.370;2023-07-24T03:32:02;7.77;;;4.10;;
22378;SDS011;11357;49.990;7.370;2023-07-24T03:34:28;5.40;;;4.23;;
22378;SDS011;11357;49.990;7.370;2023-07-24T03:36:54;5.73;;;4.10;;
22378;SDS011;11357;49.990;7.370;2023-07-24T03:39:20;5.37;;;4.27;;
22378;SDS011;11357;49.990;7.370;2023-07-24T03:41:45;5.63;;;4.37;;
22378;SDS011;11357;49.990;7.370;2023-07-24T03:44:11;6.50;;;4.10;;
22378;SDS011;11357;49.990;7.370;2023-07-24T03:46:37;10.57;;;4.33;;
22378;SDS011;11357;49.990;7.370;2023-07-24T03:49:03;6.13;;;4.27;;
22378;SDS011;11357;49.990;7.370;2023-07-24T03:51:28;8.07;;;4.30;;
22378;SDS011;11357;49.990;7.370;2023-07-24T03:53:54;9.67;;;5.37;;
22378;SDS011;11357;49.990;7.370;2023-07-24T03:56:20;5.90;;;4.30;;
22378;SDS011;11357;49.990;7.370;2023-07-24T03:58:45;9.83;;;4.83;;
22378;SDS011;11357;49.990;7.370;2023-07-24T04:01:11;8.33;;;4.60;;
22378;SDS011;11357;49.990;7.370;2023-07-24T04:03:37;14.20;;;5.90;;
22378;SDS011;11357;49.990;7.370;2023-07-24T04:06:03;8.30;;;4.30;;
22378;SDS011;11357;49.990;7.370;2023-07-24T04:08:29;8.87;;;4.73;;
22378;SDS011;11357;49.990;7.370;2023-07-24T04:10:54;8.27;;;4.80;;
22378;SDS011;11357;49.990;7.370;2023-07-24T04:13:23;6.40;;;4.70;;
22378;SDS011;11357;49.990;7.370;2023-07-24T04:15:49;9.90;;;4.30;;
22378;SDS011;11357;49.990;7.370;2023-07-24T04:18:15;6.43;;;4.67;;
22378;SDS011;11357;49.990;7.370;2023-07-24T04:20:41;6.37;;;4.10;;
22378;SDS011;11357;49.990;7.370;2023-07-24T04:23:06;7.97;;;4.87;;
22378;SDS011;11357;49.990;7.370;2023-07-24T04:25:32;6.13;;;3.83;;
22378;SDS011;11357;49.990;7.370;2023-07-24T04:27:58;7.33;;;4.63;;
22378;SDS011;11357;49.990;7.370;2023-07-24T04:30:23;6.93;;;4.70;;
22378;SDS011;11357;49.990;7.370;2023-07-24T04:32:49;6.33;;;4.43;;
22378;SDS011;11357;49.990;7.370;2023-07-24T04:35:15;7.17;;;4.03;;
22378;SDS011;11357;49.990;7.370;2023-07-24T04:37:41;7.83;;;4.73;;
22378;SDS011;11357;49.990;7.370;2023-07-24T04:40:07;9.40;;;4.20;;
22378;SDS011;11357;49.990;7.370;2023-07-24T04:42:33;8.13;;;4.33;;
22378;SDS011;11357;49.990;7.370;2023-07-24T04:44:59;7.00;;;4.17;;
22378;SDS011;11357;49.990;7.370;2023-07-24T04:47:24;11.07;;;4.40;;
22378;SDS011;11357;49.990;7.370;2023-07-24T04:49:50;7.33;;;3.97;;
22378;SDS011;11357;49.990;7.370;2023-07-24T04:52:16;6.37;;;4.10;;
22378;SDS011;11357;49.990;7.370;2023-07-24T04:54:41;9.37;;;3.93;;
22378;SDS011;11357;49.990;7.370;2023-07-24T04:57:07;7.47;;;4.27;;
22378;SDS011;11357;49.990;7.370;2023-07-24T04:59:33;5.70;;;4.00;;
22378;SDS011;11357;49.990;7.370;2023-07-24T05:01:58;6.17;;;4.10;;
22378;SDS011;11357;49.990;7.370;2023-07-24T05:04:24;6.77;;;4.23;;
22378;SDS011;11357;49.990;7.370;2023-07-24T05:06:50;5.00;;;3.70;;
22378;SDS011;11357;49.990;7.370;2023-07-24T05:09:15;4.53;;;3.85;;
22378;SDS011;11357;49.990;7.370;2023-07-24T05:11:41;12.30;;;4.70;;
22378;SDS011;11357;49.990;7.370;2023-07-24T05:14:09;7.83;;;4.30;;
22378;SDS011;11357;49.990;7.370;2023-07-24T05:16:35;6.00;;;3.90;;
22378;SDS011;11357;49.990;7.370;2023-07-24T05:19:01;4.90;;;3.70;;
22378;SDS011;11357;49.990;7.370;2023-07-24T05:21:27;9.90;;;4.30;;
22378;SDS011;11357;49.990;7.370;2023-07-24T05:23:52;7.20;;;4.53;;
22378;SDS011;11357;49.990;7.370;2023-07-24T05:26:18;7.53;;;4.50;;
22378;SDS011;11357;49.990;7.370;2023-07-24T05:28:44;7.40;;;4.47;;
22378;SDS011;11357;49.990;7.370;2023-07-24T05:31:10;13.87;;;4.90;;
22378;SDS011;11357;49.990;7.370;2023-07-24T05:33:36;12.20;;;4.17;;
22378;SDS011;11357;49.990;7.370;2023-07-24T05:36:02;6.53;;;4.70;;
22378;SDS011;11357;49.990;7.370;2023-07-24T05:38:29;10.18;;;4.70;;
22378;SDS011;11357;49.990;7.370;2023-07-24T05:40:56;8.43;;;4.93;;
22378;SDS011;11357;49.990;7.370;2023-07-24T05:43:26;6.90;;;4.40;;
22378;SDS011;11357;49.990;7.370;2023-07-24T05:45:53;4.90;;;4.30;;
22378;SDS011;11357;49.990;7.370;2023-07-24T05:48:19;6.73;;;4.93;;
22378;SDS011;11357;49.990;7.370;2023-07-24T05:50:45;7.43;;;4.50;;
22378;SDS011;11357;49.990;7.370;2023-07-24T05:53:12;11.40;;;5.43;;
22378;SDS011;11357;49.990;7.370;2023-07-24T05:55:38;7.90;;;5.40;;
22378;SDS011;11357;49.990;7.370;2023-07-24T05:58:04;6.30;;;4.87;;
22378;SDS011;11357;49.990;7.370;2023-07-24T06:00:30;10.10;;;5.22;;
22378;SDS011;11357;49.990;7.370;2023-07-24T06:02:56;8.13;;;5.33;;
22378;SDS011;11357;49.990;7.370;2023-07-24T06:05:21;8.30;;;5.20;;
22378;SDS011;11357;49.990;7.370;2023-07-24T06:07:47;9.10;;;4.67;;
22378;SDS011;11357;49.990;7.370;2023-07-24T06:10:13;7.57;;;4.93;;
22378;SDS011;11357;49.990;7.370;2023-07-24T06:12:39;6.93;;;4.87;;
22378;SDS011;11357;49.990;7.370;2023-07-24T06:15:06;8.27;;;5.10;;
22378;SDS011;11357;49.990;7.370;2023-07-24T06:17:32;7.60;;;5.15;;
22378;SDS011;11357;49.990;7.370;2023-07-24T06:19:59;12.90;;;4.85;;
22378;SDS011;11357;49.990;7.370;2023-07-24T06:22:24;6.95;;;4.63;;
22378;SDS011;11357;49.990;7.370;2023-07-24T06:24:50;7.77;;;5.07;;
22378;SDS011;11357;49.990;7.370;2023-07-24T06:27:16;7.97;;;4.85;;
22378;SDS011;11357;49.990;7.370;2023-07-24T06:29:42;7.03;;;4.75;;
22378;SDS011;11357;49.990;7.370;2023-07-24T06:32:08;6.88;;;4.80;;
22378;SDS011;11357;49.990;7.370;2023-07-24T06:34:34;6.90;;;4.45;;
22378;SDS011;11357;49.990;7.370;2023-07-24T06:37:00;6.35;;;4.60;;
22378;SDS011;11357;49.990;7.370;2023-07-24T06:39:27;10.57;;;4.82;;
22378;SDS011;11357;49.990;7.370;2023-07-24T06:41:54;8.30;;;5.00;;
22378;SDS011;11357;49.990;7.370;2023-07-24T06:44:20;10.07;;;5.25;;
22378;SDS011;11357;49.990;7.370;2023-07-24T06:46:46;6.40;;;4.88;;
22378;SDS011;11357;49.990;7.370;2023-07-24T06:49:12;7.40;;;5.18;;
22378;SDS011;11357;49.990;7.370;2023-07-24T06:51:38;9.30;;;5.05;;
22378;SDS011;11357;49.990;7.370;2023-07-24T06:54:04;8.00;;;5.00;;
22378;SDS011;11357;49.990;7.370;2023-07-24T06:56:31;8.32;;;4.55;;
22378;SDS011;11357;49.990;7.370;2023-07-24T06:58:57;9.02;;;4.53;;
22378;SDS011;11357;49.990;7.370;2023-07-24T07:01:23;5.00;;;4.40;;
22378;SDS011;11357;49.990;7.370;2023-07-24T07:03:49;6.10;;;4.30;;
22378;SDS011;11357;49.990;7.370;2023-07-24T07:06:15;7.57;;;4.45;;
22378;SDS011;11357;49.990;7.370;2023-07-24T07:08:40;6.75;;;4.07;;
22378;SDS011;11357;49.990;7.370;2023-07-24T07:11:06;7.15;;;3.70;;
22378;SDS011;11357;49.990;7.370;2023-07-24T07:13:32;8.90;;;3.97;;
22378;SDS011;11357;49.990;7.370;2023-07-24T07:15:58;5.60;;;3.92;;
22378;SDS011;11357;49.990;7.370;2023-07-24T07:18:23;5.00;;;3.95;;
22378;SDS011;11357;49.990;7.370;2023-07-24T07:20:50;6.38;;;4.00;;
22378;SDS011;11357;49.990;7.370;2023-07-24T07:23:17;4.85;;;3.80;;
22378;SDS011;11357;49.990;7.370;2023-07-24T07:25:42;6.25;;;3.88;;
22378;SDS011;11357;49.990;7.370;2023-07-24T07:28:10;7.07;;;4.18;;
22378;SDS011;11357;49.990;7.370;2023-07-24T07:30:40;5.55;;;3.83;;
22378;SDS011;11357;49.990;7.370;2023-07-24T07:33:06;8.52;;;3.85;;
22378;SDS011;11357;49.990;7.370;2023-07-24T07:35:33;8.63;;;4.03;;
22378;SDS011;11357;49.990;7.370;2023-07-24T07:37:59;6.90;;;3.90;;
22378;SDS011;11357;49.990;7.370;2023-07-24T07:40:25;5.18;;;3.92;;
22378;SDS011;11357;49.990;7.370;2023-07-24T07:42:54;5.03;;;4.00;;
22378;SDS011;11357;49.990;7.370;2023-07-24T07:45:21;5.25;;;3.92;;
22378;SDS011;11357;49.990;7.370;2023-07-24T07:47:48;5.63;;;4.13;;
22378;SDS011;11357;49.990;7.370;2023-07-24T07:50:14;6.07;;;4.13;;
22378;SDS011;11357;49.990;7.370;2023-07-24T07:52:40;6.65;;;4.50;;
22378;SDS011;11357;49.990;7.370;2023-07-24T07:55:05;5.95;;;4.32;;
22378;SDS011;11357;49.990;7.370;2023-07-24T07:57:35;5.30;;;3.90;;
22378;SDS011;11357;49.990;7.370;2023-07-24T08:00:04;4.55;;;3.63;;
22378;SDS011;11357;49.990;7.370;2023-07-24T08:02:33;9.30;;;4.07;;
22378;SDS011;11357;49.990;7.370;2023-07-24T08:04:59;7.82;;;4.22;;
22378;SDS011;11357;49.990;7.370;2023-07-24T08:07:25;6.15;;;4.00;;
22378;SDS011;11357;49.990;7.370;2023-07-24T08:09:50;4.80;;;4.00;;
22378;SDS011;11357;49.990;7.370;2023-07-24T08:12:16;7.88;;;4.03;;
22378;SDS011;11357;49.990;7.370;2023-07-24T08:14:42;7.68;;;4.13;;
22378;SDS011;11357;49.990;7.370;2023-07-24T08:17:08;8.20;;;4.75;;
22378;SDS011;11357;49.990;7.370;2023-07-24T08:19:33;9.43;;;4.85;;
22378;SDS011;11357;49.990;7.370;2023-07-24T08:21:59;13.30;;;4.90;;
22378;SDS011;11357;49.990;7.370;2023-07-24T08:24:25;7.90;;;4.45;;
22378;SDS011;11357;49.990;7.370;2023-07-24T08:26:51;7.47;;;4.40;;
22378;SDS011;11357;49.990;7.370;2023-07-24T08:29:16;5.90;;;4.10;;
22378;SDS011;11357;49.990;7.370;2023-07-24T08:31:43;9.55;;;3.80;;
22378;SDS011;11357;49.990;7.370;2023-07-24T08:34:09;6.43;;;4.30;;
22378;SDS011;11357;49.990;7.370;2023-07-24T08:36:35;7.13;;;4.18;;
22378;SDS011;11357;49.990;7.370;2023-07-24T08:39:02;6.20;;;3.95;;
22378;SDS011;11357;49.990;7.370;2023-07-24T08:41:28;5.80;;;4.20;;
22378;SDS011;11357;49.990;7.370;2023-07-24T08:43:54;8.77;;;4.05;;
22378;SDS011;11357;49.990;7.370;2023-07-24T08:46:21;8.00;;;4.50;;
22378;SDS011;11357;49.990;7.370;2023-07-24T08:48:47;8.43;;;4.22;;
22378;SDS011;11357;49.990;7.370;2023-07-24T08:51:14;5.40;;;4.18;;
22378;SDS011;11357;49.990;7.370;2023-07-24T08:53:44;5.55;;;4.40;;
22378;SDS011;11357;49.990;7.370;2023-07-24T08:56:10;6.75;;;4.70;;
22378;SDS011;11357;49.990;7.370;2023-07-24T08:58:37;8.15;;;4.75;;
22378;SDS011;11357;49.990;7.370;2023-07-24T09:01:04;9.18;;;5.03;;
22378;SDS011;11357;49.990;7.370;2023-07-24T09:03:31;8.48;;;4.68;;
22378;SDS011;11357;49.990;7.370;2023-07-24T09:06:02;6.72;;;4.50;;
22378;SDS011;11357;49.990;7.370;2023-07-24T09:19:58;7.72;;;4.53;;
22378;SDS011;11357;49.990;7.370;2023-07-24T09:22:24;8.13;;;4.97;;
22378;SDS011;11357;49.990;7.370;2023-07-24T09:27:26;6.80;;;4.30;;
22378;SDS011;11357;49.990;7.370;2023-07-24T09:29:53;7.40;;;4.10;;
22378;SDS011;11357;49.990;7.370;2023-07-24T09:32:21;6.95;;;4.68;;
22378;SDS011;11357;49.990;7.370;2023-07-24T09:34:48;9.77;;;4.75;;
22378;SDS011;11357;49.990;7.370;2023-07-24T09:37:27;9.38;;;4.55;;
22378;SDS011;11357;49.990;7.370;2023-07-24T09:39:58;6.28;;;4.40;;
22378;SDS011;11357;49.990;7.370;2023-07-24T09:44:57;8.27;;;4.30;;
22378;SDS011;11357;49.990;7.370;2023-07-24T09:47:23;6.45;;;4.78;;
22378;SDS011;11357;49.990;7.370;2023-07-24T09:49:48;7.63;;;4.40;;
22378;SDS011;11357;49.990;7.370;2023-07-24T09:52:16;6.88;;;4.95;;
22378;SDS011;11357;49.990;7.370;2023-07-24T09:55:28;6.60;;;4.13;;
22378;SDS011;11357;49.990;7.370;2023-07-24T09:57:33;5.40;;;4.45;;
22378;SDS011;11357;49.990;7.370;2023-07-24T10:00:03;5.60;;;4.20;;
22378;SDS011;11357;49.990;7.370;2023-07-24T10:02:30;5.97;;;4.50;;
22378;SDS011;11357;49.990;7.370;2023-07-24T10:04:55;6.68;;;4.22;;
22378;SDS011;11357;49.990;7.370;2023-07-24T10:07:24;7.47;;;4.60;;
22378;SDS011;11357;49.990;7.370;2023-07-24T10:09:53;7.45;;;4.75;;
22378;SDS011;11357;49.990;7.370;2023-07-24T10:12:20;6.43;;;4.55;;
22378;SDS011;11357;49.990;7.370;2023-07-24T10:14:47;8.70;;;5.00;;
22378;SDS011;11357;49.990;7.370;2023-07-24T10:17:13;6.78;;;4.55;;
22378;SDS011;11357;49.990;7.370;2023-07-24T10:19:42;6.93;;;4.65;;
22378;SDS011;11357;49.990;7.370;2023-07-24T10:22:09;6.88;;;4.55;;
22378;SDS011;11357;49.990;7.370;2023-07-24T10:24:43;8.50;;;4.95;;
22378;SDS011;11357;49.990;7.370;2023-07-24T10:27:09;4.85;;;4.28;;
22378;SDS011;11357;49.990;7.370;2023-07-24T10:29:35;10.02;;;4.35;;
22378;SDS011;11357;49.990;7.370;2023-07-24T10:32:01;4.85;;;3.95;;
22378;SDS011;11357;49.990;7.370;2023-07-24T10:34:38;6.22;;;3.92;;
22378;SDS011;11357;49.990;7.370;2023-07-24T10:37:06;6.50;;;4.15;;
22378;SDS011;11357;49.990;7.370;2023-07-24T10:39:37;5.00;;;3.15;;
22378;SDS011;11357;49.990;7.370;2023-07-24T10:42:08;6.40;;;3.55;;
22378;SDS011;11357;49.990;7.370;2023-07-24T10:44:35;4.57;;;3.47;;
22378;SDS011;11357;49.990;7.370;2023-07-24T10:47:02;5.72;;;3.80;;
22378;SDS011;11357;49.990;7.370;2023-07-24T10:49:28;5.72;;;3.72;;
22378;SDS011;11357;49.990;7.370;2023-07-24T10:51:57;5.43;;;3.50;;
22378;SDS011;11357;49.990;7.370;2023-07-24T10:54:23;4.13;;;3.28;;
22378;SDS011;11357;49.990;7.370;2023-07-24T10:56:49;6.93;;;3.40;;
22378;SDS011;11357;49.990;7.370;2023-07-24T10:59:15;5.63;;;3.38;;
22378;SDS011;11357;49.990;7.370;2023-07-24T11:01:41;6.53;;;3.25;;
22378;SDS011;11357;49.990;7.370;2023-07-24T11:04:07;4.53;;;3.78;;
22378;SDS011;11357;49.990;7.370;2023-07-24T11:06:33;8.45;;;3.28;;
22378;SDS011;11357;49.990;7.370;2023-07-24T11:08:59;4.55;;;3.10;;
22378;SDS011;11357;49.990;7.370;2023-07-24T11:11:43;3.65;;;2.85;;
22378;SDS011;11357;49.990;7.370;2023-07-24T11:14:13;5.78;;;3.25;;
22378;SDS011;11357;49.990;7.370;2023-07-24T11:16:47;4.05;;;3.10;;
22378;SDS011;11357;49.990;7.370;2023-07-24T11:19:25;3.72;;;2.88;;
22378;SDS011;11357;49.990;7.370;2023-07-24T11:21:51;4.30;;;2.92;;
22378;SDS011;11357;49.990;7.370;2023-07-24T11:24:17;3.70;;;3.22;;
22378;SDS011;11357;49.990;7.370;2023-07-24T11:26:43;4.82;;;3.08;;
22378;SDS011;11357;49.990;7.370;2023-07-24T11:29:12;3.50;;;3.08;;
22378;SDS011;11357;49.990;7.370;2023-07-24T11:31:38;4.40;;;2.88;;
22378;SDS011;11357;49.990;7.370;2023-07-24T11:34:04;3.92;;;2.80;;
22378;SDS011;11357;49.990;7.370;2023-07-24T11:36:30;3.33;;;2.50;;
22378;SDS011;11357;49.990;7.370;2023-07-24T11:38:57;3.90;;;2.72;;
22378;SDS011;11357;49.990;7.370;2023-07-24T11:41:23;6.13;;;2.63;;
22378;SDS011;11357;49.990;7.370;2023-07-24T11:43:50;4.13;;;2.83;;
22378;SDS011;11357;49.990;7.370;2023-07-24T11:46:26;5.38;;;2.80;;
22378;SDS011;11357;49.990;7.370;2023-07-24T11:48:53;3.35;;;2.63;;
22378;SDS011;11357;49.990;7.370;2023-07-24T11:51:23;3.92;;;2.80;;
22378;SDS011;11357;49.990;7.370;2023-07-24T11:53:50;3.67;;;2.70;;
22378;SDS011;11357;49.990;7.370;2023-07-24T11:56:17;5.40;;;2.85;;
22378;SDS011;11357;49.990;7.370;2023-07-24T11:58:44;6.85;;;3.53;;
22378;SDS011;11357;49.990;7.370;2023-07-24T12:01:21;9.15;;;3.45;;
22378;SDS011;11357;49.990;7.370;2023-07-24T12:03:47;3.88;;;3.35;;
22378;SDS011;11357;49.990;7.370;2023-07-24T12:06:15;4.32;;;3.60;;
22378;SDS011;11357;49.990;7.370;2023-07-24T12:08:45;5.68;;;3.50;;
22378;SDS011;11357;49.990;7.370;2023-07-24T12:11:17;5.88;;;4.03;;
22378;SDS011;11357;49.990;7.370;2023-07-24T12:13:46;4.95;;;4.32;;
22378;SDS011;11357;49.990;7.370;2023-07-24T12:16:28;11.40;;;4.45;;
22378;SDS011;11357;49.990;7.370;2023-07-24T12:18:53;5.60;;;4.43;;
22378;SDS011;11357;49.990;7.370;2023-07-24T12:21:21;9.18;;;4.85;;
22378;SDS011;11357;49.990;7.370;2023-07-24T12:23:48;6.80;;;4.18;;
22378;SDS011;11357;49.990;7.370;2023-07-24T12:26:19;5.53;;;4.07;;
22378;SDS011;11357;49.990;7.370;2023-07-24T12:28:45;8.35;;;3.97;;
22378;SDS011;11357;49.990;7.370;2023-07-24T12:31:11;6.68;;;4.30;;
22378;SDS011;11357;49.990;7.370;2023-07-24T12:33:36;6.47;;;4.45;;
22378;SDS011;11357;49.990;7.370;2023-07-24T12:36:02;7.55;;;3.97;;
22378;SDS011;11357;49.990;7.370;2023-07-24T12:38:28;8.32;;;4.07;;
22378;SDS011;11357;49.990;7.370;2023-07-24T12:40:54;8.02;;;4.10;;
22378;SDS011;11357;49.990;7.370;2023-07-24T12:43:20;5.22;;;3.83;;
22378;SDS011;11357;49.990;7.370;2023-07-24T12:48:33;11.95;;;4.13;;
22378;SDS011;11357;49.990;7.370;2023-07-24T12:50:58;17.38;;;5.85;;
22378;SDS011;11357;49.990;7.370;2023-07-24T12:53:26;9.13;;;4.22;;
22378;SDS011;11357;49.990;7.370;2023-07-24T12:55:51;6.97;;;4.00;;
22378;SDS011;11357;49.990;7.370;2023-07-24T12:58:17;6.00;;;3.88;;
22378;SDS011;11357;49.990;7.370;2023-07-24T13:00:43;4.70;;;3.50;;
22378;SDS011;11357;49.990;7.370;2023-07-24T13:03:08;5.03;;;3.72;;
22378;SDS011;11357;49.990;7.370;2023-07-24T13:05:34;4.45;;;3.30;;
22378;SDS011;11357;49.990;7.370;2023-07-24T13:08:00;8.15;;;3.40;;
22378;SDS011;11357;49.990;7.370;2023-07-24T13:10:25;3.65;;;2.80;;
22378;SDS011;11357;49.990;7.370;2023-07-24T13:12:51;5.40;;;3.70;;
22378;SDS011;11357;49.990;7.370;2023-07-24T13:15:26;4.47;;;2.50;;
22378;SDS011;11357;49.990;7.370;2023-07-24T13:17:52;6.82;;;2.85;;
22378;SDS011;11357;49.990;7.370;2023-07-24T13:20:17;3.47;;;2.80;;
22378;SDS011;11357;49.990;7.370;2023-07-24T13:22:43;3.58;;;2.72;;
22378;SDS011;11357;49.990;7.370;2023-07-24T13:25:11;3.05;;;2.25;;
22378;SDS011;11357;49.990;7.370;2023-07-24T13:27:37;2.60;;;1.80;;
22378;SDS011;11357;49.990;7.370;2023-07-24T13:30:03;3.15;;;1.85;;
22378;SDS011;11357;49.990;7.370;2023-07-24T13:32:29;2.25;;;1.45;;
22378;SDS011;11357;49.990;7.370;2023-07-24T13:34:55;1.30;;;1.20;;
22378;SDS011;11357;49.990;7.370;2023-07-24T13:37:21;3.20;;;1.30;;
22378;SDS011;11357;49.990;7.370;2023-07-24T13:39:50;1.13;;;1.00;;
22378;SDS011;11357;49.990;7.370;2023-07-24T13:42:16;2.40;;;1.55;;
22378;SDS011;11357;49.990;7.370;2023-07-24T13:44:42;1.25;;;0.90;;
22378;SDS011;11357;49.990;7.370;2023-07-24T13:47:07;1.55;;;1.17;;
22378;SDS011;11357;49.990;7.370;2023-07-24T13:49:33;1.17;;;1.08;;
22378;SDS011;11357;49.990;7.370;2023-07-24T13:51:59;1.33;;;0.90;;
22378;SDS011;11357;49.990;7.370;2023-07-24T13:54:24;1.10;;;1.00;;
22378;SDS011;11357;49.990;7.370;2023-07-24T13:56:50;1.98;;;1.83;;
22378;SDS011;11357;49.990;7.370;2023-07-24T13:59:16;1.17;;;1.00;;
22378;SDS011;11357;49.990;7.370;2023-07-24T14:01:41;1.58;;;1.30;;
22378;SDS011;11357;49.990;7.370;2023-07-24T14:04:07;1.80;;;1.60;;
22378;SDS011;11357;49.990;7.370;2023-07-24T14:06:33;1.42;;;1.30;;
22378;SDS011;11357;49.990;7.370;2023-07-24T14:08:58;1.20;;;1.08;;
22378;SDS011;11357;49.990;7.370;2023-07-24T14:11:29;1.13;;;1.00;;
22378;SDS011;11357;49.990;7.370;2023-07-24T14:13:55;1.70;;;1.10;;
22378;SDS011;11357;49.990;7.370;2023-07-24T14:16:21;3.03;;;1.35;;
22378;SDS011;11357;49.990;7.370;2023-07-24T14:18:47;1.48;;;1.10;;
22378;SDS011;11357;49.990;7.370;2023-07-24T14:21:12;1.17;;;1.08;;
22378;SDS011;11357;49.990;7.370;2023-07-24T14:23:40;3.58;;;1.58;;
22378;SDS011;11357;49.990;7.370;2023-07-24T14:26:06;1.48;;;1.20;;
22378;SDS011;11357;49.990;7.370;2023-07-24T14:28:32;1.65;;;1.20;;
22378;SDS011;11357;49.990;7.370;2023-07-24T14:30:57;2.30;;;1.10;;
22378;SDS011;11357;49.990;7.370;2023-07-24T14:33:23;1.70;;;1.25;;
22378;SDS011;11357;49.990;7.370;2023-07-24T14:35:49;4.32;;;1.08;;
22378;SDS011;11357;49.990;7.370;2023-07-24T14:38:15;1.52;;;1.23;;
22378;SDS011;11357;49.990;7.370;2023-07-24T14:40:40;2.25;;;1.50;;
22378;SDS011;11357;49.990;7.370;2023-07-24T14:43:06;1.30;;;1.10;;
22378;SDS011;11357;49.990;7.370;2023-07-24T14:45:32;4.15;;;1.20;;
22378;SDS011;11357;49.990;7.370;2023-07-24T14:47:58;6.20;;;5.70;;
22378;SDS011;11357;49.990;7.370;2023-07-24T14:50:24;4.63;;;1.30;;
22378;SDS011;11357;49.990;7.370;2023-07-24T14:52:49;7.97;;;1.63;;
22378;SDS011;11357;49.990;7.370;2023-07-24T14:55:15;1.88;;;1.25;;
22378;SDS011;11357;49.990;7.370;2023-07-24T14:57:42;1.30;;;1.20;;
22378;SDS011;11357;49.990;7.370;2023-07-24T15:00:08;3.35;;;1.45;;
22378;SDS011;11357;49.990;7.370;2023-07-24T15:02:34;1.90;;;1.35;;
22378;SDS011;11357;49.990;7.370;2023-07-24T15:05:00;1.40;;;1.30;;
22378;SDS011;11357;49.990;7.370;2023-07-24T15:07:28;3.35;;;1.70;;
22378;SDS011;11357;49.990;7.370;2023-07-24T15:09:54;1.67;;;1.30;;
22378;SDS011;11357;49.990;7.370;2023-07-24T15:12:20;1.85;;;1.20;;